首页
METAR-TAF:

METAR-TAF

机场 :

茨城机场

百里飛行場, 日本

纬度: 36-11N, 经度: 140-25E, 海拔: 32米

当前天气观测

该预报发布于41分钟前的00:00 UTC
风速2节,风向北转东北
温度 4°C
湿度 70%
气压 1021 hPa
能见度10公里或以上
少量云层高于3000英尺

METAR: RJAH 130000Z 03002KT 9999 FEW030 04/M01 Q1021

时间: 09:41 (00:41 UTC)

预报

该预报发布于1小时和33分钟前的23:08 UTC
预报有效从13日的 00点(UTC)到 14日的 06点(UTC)
风速5节,风向北转东北
能见度10公里或以上
少量云层高于3000英尺
成为
从 13日的 02点(UTC)到 13日的 04点(UTC)
风速5节,风向
成为
从 13日的 18点(UTC)到 13日的 21点(UTC)
风速12节,风向北转西北

TAF: RJAH 122308Z 1300/1406 02005KT 9999 FEW030 BECMG 1302/1304 18005KT BECMG 1318/1321 34012KT

超过4000个机场的气象观测和天气预报(METAR&TAF报告)。

可查询的气象台以黄色和红色小点在地图上表示。

将鼠标移到小点上方,可查看气象台名称。

然后点击查看天气观测和预报。

如需切换地图:点击带黑十字的绿色按钮放大地图;点击带横线的绿色按钮缩小地图;或者点击绿色箭头查看邻近地区的地图。


METAR-TAF: